This is the latest recevied weather packets stored in our database for station/object DM3FAM-10. If no packets are shown the sender has not sent any weather packets the latest 10 day(s).
| Time | Temp. | Humidity | Pressure | Rain* | Wind** | Luminosity | Snow |
|---|---|---|---|---|---|---|---|
| 1777457486 | 20.56° C | 34% | 969.6 hPa | - | - | - | - |
| 1777456586 | 20° C | 36% | 969.5 hPa | - | - | - | - |
| 1777455686 | 20° C | 33% | 969.6 hPa | - | - | - | - |
| 1777454786 | 20° C | 33% | 969.5 hPa | - | - | - | - |
| 1777453886 | 18.89° C | 34% | 969.7 hPa | - | - | - | - |
| 1777452986 | 18.89° C | 37% | 969.4 hPa | - | - | - | - |
| 1777452086 | 17.78° C | 42% | 969.5 hPa | - | - | - | - |
| 1777451186 | 16.11° C | 47% | 969.3 hPa | - | - | - | - |
| 1777450285 | 15.56° C | 49% | 969.3 hPa | - | - | - | - |
| 1777449385 | 15° C | 48% | 969.4 hPa | - | - | - | - |
| 1777448485 | 14.44° C | 55% | 969.4 hPa | - | - | - | - |
| 1777447585 | 13.89° C | 53% | 969.3 hPa | - | - | - | - |
| 1777446685 | 13.33° C | 56% | 969.5 hPa | - | - | - | - |
| 1777445785 | 13.33° C | 59% | 969.4 hPa | - | - | - | - |
| 1777444885 | 12.22° C | 64% | 969.4 hPa | - | - | - | - |
| 1777443985 | 10.56° C | 80% | 969.3 hPa | - | - | - | - |
| 1777443085 | 11.67° C | 68% | 969.4 hPa | - | - | - | - |
| 1777442185 | 11.67° C | 72% | 969.1 hPa | - | - | - | - |
| 1777441285 | 11.11° C | 71% | 969.1 hPa | - | - | - | - |
| 1777440385 | 11.11° C | 68% | 968.9 hPa | - | - | - | - |
| 1777439485 | 10.56° C | 75% | 968.9 hPa | - | - | - | - |
| 1777438585 | 10.56° C | 76% | 968.8 hPa | - | - | - | - |
| 1777437685 | 10.56° C | 78% | 968.7 hPa | - | - | - | - |
| 1777436785 | 10.56° C | 75% | 968.6 hPa | - | - | - | - |
| 1777435885 | 10° C | 85% | 968.6 hPa | - | - | - | - |
* Rain since midnight (hover to see other rain measurements)
** Current wind speed in m/s (hover to see current wind gust speed)